sensor_id;sensor_type;location;lat;lon;timestamp;P1;durP1;ratioP1;P2;durP2;ratioP2
4921;SDS011;16625;53.624;10.106;2022-11-11T00:00:58;6.30;;;3.00;;
4921;SDS011;16625;53.624;10.106;2022-11-11T00:03:27;8.40;;;3.10;;
4921;SDS011;16625;53.624;10.106;2022-11-11T00:05:58;15.37;;;3.10;;
4921;SDS011;16625;53.624;10.106;2022-11-11T00:08:26;6.23;;;2.80;;
4921;SDS011;16625;53.624;10.106;2022-11-11T00:10:58;9.30;;;3.97;;
4921;SDS011;16625;53.624;10.106;2022-11-11T00:13:25;14.13;;;3.70;;
4921;SDS011;16625;53.624;10.106;2022-11-11T00:15:54;7.23;;;2.97;;
4921;SDS011;16625;53.624;10.106;2022-11-11T00:18:20;10.83;;;3.30;;
4921;SDS011;16625;53.624;10.106;2022-11-11T00:21:12;20.93;;;4.90;;
4921;SDS011;16625;53.624;10.106;2022-11-11T00:24:07;10.20;;;3.57;;
4921;SDS011;16625;53.624;10.106;2022-11-11T00:27:02;6.73;;;3.33;;
4921;SDS011;16625;53.624;10.106;2022-11-11T00:29:29;7.23;;;2.70;;
4921;SDS011;16625;53.624;10.106;2022-11-11T00:31:56;8.97;;;3.13;;
4921;SDS011;16625;53.624;10.106;2022-11-11T00:34:40;10.63;;;5.07;;
4921;SDS011;16625;53.624;10.106;2022-11-11T00:37:29;10.97;;;4.27;;
4921;SDS011;16625;53.624;10.106;2022-11-11T00:39:56;10.57;;;4.53;;
4921;SDS011;16625;53.624;10.106;2022-11-11T00:42:23;6.63;;;3.73;;
4921;SDS011;16625;53.624;10.106;2022-11-11T00:44:50;11.97;;;3.70;;
4921;SDS011;16625;53.624;10.106;2022-11-11T00:47:20;7.23;;;4.57;;
4921;SDS011;16625;53.624;10.106;2022-11-11T00:50:05;11.33;;;4.93;;
4921;SDS011;16625;53.624;10.106;2022-11-11T00:52:54;6.20;;;4.63;;
4921;SDS011;16625;53.624;10.106;2022-11-11T00:55:21;13.73;;;4.53;;
4921;SDS011;16625;53.624;10.106;2022-11-11T00:57:47;9.13;;;6.07;;
4921;SDS011;16625;53.624;10.106;2022-11-11T01:00:14;11.40;;;5.07;;
4921;SDS011;16625;53.624;10.106;2022-11-11T01:02:41;14.47;;;5.33;;
4921;SDS011;16625;53.624;10.106;2022-11-11T01:05:08;9.33;;;4.93;;
4921;SDS011;16625;53.624;10.106;2022-11-11T01:07:35;17.17;;;5.27;;
4921;SDS011;16625;53.624;10.106;2022-11-11T01:10:03;12.73;;;5.13;;
4921;SDS011;16625;53.624;10.106;2022-11-11T01:12:30;12.27;;;5.83;;
4921;SDS011;16625;53.624;10.106;2022-11-11T01:15:00;8.70;;;4.83;;
4921;SDS011;16625;53.624;10.106;2022-11-11T01:17:27;9.23;;;4.90;;
4921;SDS011;16625;53.624;10.106;2022-11-11T01:19:54;8.03;;;4.73;;
4921;SDS011;16625;53.624;10.106;2022-11-11T01:22:24;15.63;;;5.87;;
4921;SDS011;16625;53.624;10.106;2022-11-11T01:24:50;10.00;;;5.10;;
4921;SDS011;16625;53.624;10.106;2022-11-11T01:27:19;16.47;;;5.00;;
4921;SDS011;16625;53.624;10.106;2022-11-11T01:29:46;15.77;;;5.20;;
4921;SDS011;16625;53.624;10.106;2022-11-11T01:32:12;16.80;;;5.87;;
4921;SDS011;16625;53.624;10.106;2022-11-11T01:34:39;11.30;;;5.50;;
4921;SDS011;16625;53.624;10.106;2022-11-11T01:37:06;15.47;;;5.60;;
4921;SDS011;16625;53.624;10.106;2022-11-11T01:39:33;15.90;;;6.10;;
4921;SDS011;16625;53.624;10.106;2022-11-11T01:41:59;9.03;;;5.90;;
4921;SDS011;16625;53.624;10.106;2022-11-11T01:44:42;7.13;;;5.27;;
4921;SDS011;16625;53.624;10.106;2022-11-11T01:47:11;8.17;;;5.50;;
4921;SDS011;16625;53.624;10.106;2022-11-11T01:49:40;14.50;;;5.33;;
4921;SDS011;16625;53.624;10.106;2022-11-11T01:52:15;14.50;;;5.83;;
4921;SDS011;16625;53.624;10.106;2022-11-11T01:54:45;12.90;;;5.73;;
4921;SDS011;16625;53.624;10.106;2022-11-11T01:57:16;9.37;;;6.07;;
4921;SDS011;16625;53.624;10.106;2022-11-11T01:59:51;8.77;;;4.73;;
4921;SDS011;16625;53.624;10.106;2022-11-11T02:02:25;30.20;;;6.43;;
4921;SDS011;16625;53.624;10.106;2022-11-11T02:04:56;18.73;;;5.63;;
4921;SDS011;16625;53.624;10.106;2022-11-11T02:07:42;12.40;;;6.37;;
4921;SDS011;16625;53.624;10.106;2022-11-11T02:10:09;10.90;;;6.20;;
4921;SDS011;16625;53.624;10.106;2022-11-11T02:12:35;14.23;;;5.40;;
4921;SDS011;16625;53.624;10.106;2022-11-11T02:15:21;11.50;;;5.90;;
4921;SDS011;16625;53.624;10.106;2022-11-11T02:17:48;18.40;;;5.80;;
4921;SDS011;16625;53.624;10.106;2022-11-11T02:20:16;11.67;;;5.83;;
4921;SDS011;16625;53.624;10.106;2022-11-11T02:22:47;11.27;;;5.23;;
4921;SDS011;16625;53.624;10.106;2022-11-11T02:25:19;13.63;;;5.80;;
4921;SDS011;16625;53.624;10.106;2022-11-11T02:27:49;11.90;;;5.50;;
4921;SDS011;16625;53.624;10.106;2022-11-11T02:30:18;16.33;;;5.50;;
4921;SDS011;16625;53.624;10.106;2022-11-11T02:32:47;13.07;;;5.47;;
4921;SDS011;16625;53.624;10.106;2022-11-11T02:35:17;10.23;;;6.47;;
4921;SDS011;16625;53.624;10.106;2022-11-11T02:37:46;21.50;;;7.00;;
4921;SDS011;16625;53.624;10.106;2022-11-11T02:40:17;10.13;;;4.87;;
4921;SDS011;16625;53.624;10.106;2022-11-11T02:42:46;10.17;;;5.63;;
4921;SDS011;16625;53.624;10.106;2022-11-11T02:45:12;15.47;;;6.80;;
4921;SDS011;16625;53.624;10.106;2022-11-11T02:47:39;11.80;;;5.73;;
4921;SDS011;16625;53.624;10.106;2022-11-11T02:50:13;10.80;;;6.23;;
4921;SDS011;16625;53.624;10.106;2022-11-11T02:52:40;11.50;;;6.17;;
4921;SDS011;16625;53.624;10.106;2022-11-11T02:55:08;8.30;;;5.73;;
4921;SDS011;16625;53.624;10.106;2022-11-11T02:57:36;8.50;;;4.90;;
4921;SDS011;16625;53.624;10.106;2022-11-11T03:00:03;10.13;;;5.03;;
4921;SDS011;16625;53.624;10.106;2022-11-11T03:02:31;8.30;;;5.13;;
4921;SDS011;16625;53.624;10.106;2022-11-11T03:04:58;8.80;;;4.63;;
4921;SDS011;16625;53.624;10.106;2022-11-11T03:07:25;7.50;;;5.10;;
4921;SDS011;16625;53.624;10.106;2022-11-11T03:09:52;13.70;;;5.40;;
4921;SDS011;16625;53.624;10.106;2022-11-11T03:12:18;11.40;;;5.33;;
4921;SDS011;16625;53.624;10.106;2022-11-11T03:14:47;10.30;;;5.00;;
4921;SDS011;16625;53.624;10.106;2022-11-11T03:17:13;10.13;;;6.43;;
4921;SDS011;16625;53.624;10.106;2022-11-11T03:19:58;14.17;;;5.20;;
4921;SDS011;16625;53.624;10.106;2022-11-11T03:22:39;11.90;;;4.30;;
4921;SDS011;16625;53.624;10.106;2022-11-11T03:25:06;13.13;;;5.33;;
4921;SDS011;16625;53.624;10.106;2022-11-11T03:27:50;16.50;;;5.63;;
4921;SDS011;16625;53.624;10.106;2022-11-11T03:30:18;13.67;;;4.97;;
4921;SDS011;16625;53.624;10.106;2022-11-11T03:32:45;8.47;;;5.33;;
4921;SDS011;16625;53.624;10.106;2022-11-11T03:35:12;11.00;;;4.80;;
4921;SDS011;16625;53.624;10.106;2022-11-11T03:37:48;10.37;;;4.60;;
4921;SDS011;16625;53.624;10.106;2022-11-11T03:40:33;7.10;;;4.50;;
4921;SDS011;16625;53.624;10.106;2022-11-11T03:42:59;11.53;;;4.67;;
4921;SDS011;16625;53.624;10.106;2022-11-11T03:45:28;12.13;;;5.23;;
4921;SDS011;16625;53.624;10.106;2022-11-11T03:47:55;19.10;;;6.20;;
4921;SDS011;16625;53.624;10.106;2022-11-11T03:50:22;13.27;;;5.70;;
4921;SDS011;16625;53.624;10.106;2022-11-11T03:52:49;9.60;;;5.13;;
4921;SDS011;16625;53.624;10.106;2022-11-11T03:55:16;13.23;;;5.27;;
4921;SDS011;16625;53.624;10.106;2022-11-11T03:57:43;12.13;;;5.50;;
4921;SDS011;16625;53.624;10.106;2022-11-11T04:00:11;11.13;;;4.90;;
4921;SDS011;16625;53.624;10.106;2022-11-11T04:02:41;12.23;;;5.97;;
4921;SDS011;16625;53.624;10.106;2022-11-11T04:05:25;12.80;;;6.60;;
4921;SDS011;16625;53.624;10.106;2022-11-11T04:08:10;10.63;;;5.23;;
4921;SDS011;16625;53.624;10.106;2022-11-11T04:10:56;11.53;;;6.17;;
4921;SDS011;16625;53.624;10.106;2022-11-11T04:13:24;10.37;;;4.80;;
4921;SDS011;16625;53.624;10.106;2022-11-11T04:16:09;10.80;;;5.70;;
4921;SDS011;16625;53.624;10.106;2022-11-11T04:18:37;13.83;;;6.10;;
4921;SDS011;16625;53.624;10.106;2022-11-11T04:21:21;22.83;;;7.10;;
4921;SDS011;16625;53.624;10.106;2022-11-11T04:24:06;10.70;;;5.80;;
4921;SDS011;16625;53.624;10.106;2022-11-11T04:26:52;18.13;;;5.70;;
4921;SDS011;16625;53.624;10.106;2022-11-11T04:29:19;15.03;;;5.13;;
4921;SDS011;16625;53.624;10.106;2022-11-11T04:31:55;18.33;;;7.67;;
4921;SDS011;16625;53.624;10.106;2022-11-11T04:34:42;13.03;;;6.10;;
4921;SDS011;16625;53.624;10.106;2022-11-11T04:37:11;14.73;;;6.63;;
4921;SDS011;16625;53.624;10.106;2022-11-11T04:39:39;8.77;;;5.73;;
4921;SDS011;16625;53.624;10.106;2022-11-11T04:42:24;13.50;;;6.03;;
4921;SDS011;16625;53.624;10.106;2022-11-11T04:44:51;9.43;;;5.40;;
4921;SDS011;16625;53.624;10.106;2022-11-11T04:47:35;12.10;;;7.70;;
4921;SDS011;16625;53.624;10.106;2022-11-11T04:50:05;7.87;;;5.00;;
4921;SDS011;16625;53.624;10.106;2022-11-11T04:52:32;20.50;;;6.37;;
4921;SDS011;16625;53.624;10.106;2022-11-11T04:54:59;14.77;;;6.60;;
4921;SDS011;16625;53.624;10.106;2022-11-11T04:57:44;11.77;;;5.87;;
4921;SDS011;16625;53.624;10.106;2022-11-11T05:00:12;17.03;;;7.00;;
4921;SDS011;16625;53.624;10.106;2022-11-11T05:02:41;13.50;;;6.53;;
4921;SDS011;16625;53.624;10.106;2022-11-11T05:05:27;14.97;;;6.93;;
4921;SDS011;16625;53.624;10.106;2022-11-11T05:08:16;11.60;;;6.43;;
4921;SDS011;16625;53.624;10.106;2022-11-11T05:11:01;15.10;;;7.93;;
4921;SDS011;16625;53.624;10.106;2022-11-11T05:13:27;20.17;;;7.40;;
4921;SDS011;16625;53.624;10.106;2022-11-11T05:16:12;16.60;;;5.97;;
4921;SDS011;16625;53.624;10.106;2022-11-11T05:18:59;11.80;;;7.17;;
4921;SDS011;16625;53.624;10.106;2022-11-11T05:21:44;10.33;;;6.50;;
4921;SDS011;16625;53.624;10.106;2022-11-11T05:24:11;11.67;;;8.00;;
4921;SDS011;16625;53.624;10.106;2022-11-11T05:27:00;9.40;;;5.47;;
4921;SDS011;16625;53.624;10.106;2022-11-11T05:29:27;17.77;;;6.97;;
4921;SDS011;16625;53.624;10.106;2022-11-11T05:31:54;14.70;;;7.80;;
4921;SDS011;16625;53.624;10.106;2022-11-11T05:34:21;10.90;;;6.90;;
4921;SDS011;16625;53.624;10.106;2022-11-11T05:36:49;16.50;;;6.83;;
4921;SDS011;16625;53.624;10.106;2022-11-11T05:39:16;15.10;;;7.90;;
4921;SDS011;16625;53.624;10.106;2022-11-11T05:41:42;16.13;;;7.57;;
4921;SDS011;16625;53.624;10.106;2022-11-11T05:44:09;15.03;;;6.77;;
4921;SDS011;16625;53.624;10.106;2022-11-11T05:46:36;14.10;;;7.50;;
4921;SDS011;16625;53.624;10.106;2022-11-11T05:49:03;23.63;;;7.90;;
4921;SDS011;16625;53.624;10.106;2022-11-11T05:51:42;10.27;;;6.60;;
4921;SDS011;16625;53.624;10.106;2022-11-11T05:54:11;19.33;;;9.40;;
4921;SDS011;16625;53.624;10.106;2022-11-11T05:56:39;15.77;;;7.50;;
4921;SDS011;16625;53.624;10.106;2022-11-11T05:59:06;12.67;;;7.30;;
4921;SDS011;16625;53.624;10.106;2022-11-11T06:01:33;10.77;;;7.90;;
4921;SDS011;16625;53.624;10.106;2022-11-11T06:04:01;23.27;;;7.37;;
4921;SDS011;16625;53.624;10.106;2022-11-11T06:06:28;13.97;;;8.07;;
4921;SDS011;16625;53.624;10.106;2022-11-11T06:08:55;12.77;;;9.40;;
4921;SDS011;16625;53.624;10.106;2022-11-11T06:11:23;17.43;;;8.07;;
4921;SDS011;16625;53.624;10.106;2022-11-11T06:13:52;17.00;;;10.10;;
4921;SDS011;16625;53.624;10.106;2022-11-11T06:16:18;16.37;;;7.53;;
4921;SDS011;16625;53.624;10.106;2022-11-11T06:18:45;12.93;;;8.97;;
4921;SDS011;16625;53.624;10.106;2022-11-11T06:21:12;15.90;;;8.87;;
4921;SDS011;16625;53.624;10.106;2022-11-11T06:23:39;29.33;;;10.20;;
4921;SDS011;16625;53.624;10.106;2022-11-11T06:26:07;16.50;;;10.10;;
4921;SDS011;16625;53.624;10.106;2022-11-11T06:28:38;24.33;;;9.20;;
4921;SDS011;16625;53.624;10.106;2022-11-11T06:31:06;23.80;;;10.70;;
4921;SDS011;16625;53.624;10.106;2022-11-11T06:33:35;11.73;;;8.87;;
4921;SDS011;16625;53.624;10.106;2022-11-11T06:36:02;17.57;;;9.23;;
4921;SDS011;16625;53.624;10.106;2022-11-11T06:38:30;19.93;;;10.70;;
4921;SDS011;16625;53.624;10.106;2022-11-11T06:40:57;20.53;;;9.90;;
4921;SDS011;16625;53.624;10.106;2022-11-11T06:43:24;20.20;;;10.10;;
4921;SDS011;16625;53.624;10.106;2022-11-11T06:45:52;27.43;;;11.50;;
4921;SDS011;16625;53.624;10.106;2022-11-11T06:48:21;19.40;;;9.80;;
4921;SDS011;16625;53.624;10.106;2022-11-11T06:50:49;19.27;;;10.70;;
4921;SDS011;16625;53.624;10.106;2022-11-11T06:53:17;26.90;;;10.17;;
4921;SDS011;16625;53.624;10.106;2022-11-11T06:55:46;19.83;;;10.33;;
4921;SDS011;16625;53.624;10.106;2022-11-11T06:58:14;21.03;;;11.40;;
4921;SDS011;16625;53.624;10.106;2022-11-11T07:00:43;23.63;;;11.97;;
4921;SDS011;16625;53.624;10.106;2022-11-11T07:03:12;21.40;;;10.50;;
4921;SDS011;16625;53.624;10.106;2022-11-11T07:05:40;21.30;;;11.43;;
4921;SDS011;16625;53.624;10.106;2022-11-11T07:08:08;17.53;;;10.10;;
4921;SDS011;16625;53.624;10.106;2022-11-11T07:10:37;34.53;;;12.37;;
4921;SDS011;16625;53.624;10.106;2022-11-11T07:13:05;26.67;;;11.47;;
4921;SDS011;16625;53.624;10.106;2022-11-11T07:15:33;21.10;;;12.80;;
4921;SDS011;16625;53.624;10.106;2022-11-11T07:18:01;19.87;;;12.20;;
4921;SDS011;16625;53.624;10.106;2022-11-11T07:20:30;23.57;;;11.90;;
4921;SDS011;16625;53.624;10.106;2022-11-11T07:22:58;24.33;;;12.10;;
4921;SDS011;16625;53.624;10.106;2022-11-11T07:25:26;28.37;;;13.43;;
4921;SDS011;16625;53.624;10.106;2022-11-11T07:27:53;36.23;;;13.10;;
4921;SDS011;16625;53.624;10.106;2022-11-11T07:30:19;29.03;;;11.83;;
4921;SDS011;16625;53.624;10.106;2022-11-11T07:32:47;13.83;;;6.97;;
4921;SDS011;16625;53.624;10.106;2022-11-11T07:35:16;25.13;;;12.50;;
4921;SDS011;16625;53.624;10.106;2022-11-11T07:37:45;24.60;;;12.17;;
4921;SDS011;16625;53.624;10.106;2022-11-11T07:40:12;22.53;;;12.23;;
4921;SDS011;16625;53.624;10.106;2022-11-11T07:42:41;27.80;;;12.93;;
4921;SDS011;16625;53.624;10.106;2022-11-11T07:45:08;27.47;;;11.63;;
4921;SDS011;16625;53.624;10.106;2022-11-11T07:47:41;22.03;;;12.80;;
4921;SDS011;16625;53.624;10.106;2022-11-11T07:50:08;34.20;;;11.80;;
4921;SDS011;16625;53.624;10.106;2022-11-11T07:52:36;30.10;;;13.03;;
4921;SDS011;16625;53.624;10.106;2022-11-11T07:55:04;25.40;;;12.73;;
4921;SDS011;16625;53.624;10.106;2022-11-11T07:57:32;32.40;;;15.30;;
4921;SDS011;16625;53.624;10.106;2022-11-11T07:59:59;33.60;;;13.23;;
4921;SDS011;16625;53.624;10.106;2022-11-11T08:02:26;24.47;;;13.37;;
4921;SDS011;16625;53.624;10.106;2022-11-11T08:04:53;29.13;;;12.87;;
4921;SDS011;16625;53.624;10.106;2022-11-11T08:07:20;29.63;;;13.33;;
4921;SDS011;16625;53.624;10.106;2022-11-11T08:09:48;28.37;;;13.23;;
4921;SDS011;16625;53.624;10.106;2022-11-11T08:12:17;45.67;;;15.10;;
4921;SDS011;16625;53.624;10.106;2022-11-11T08:15:01;31.33;;;13.37;;
4921;SDS011;16625;53.624;10.106;2022-11-11T08:17:28;24.13;;;12.13;;
4921;SDS011;16625;53.624;10.106;2022-11-11T08:19:55;33.77;;;12.50;;
4921;SDS011;16625;53.624;10.106;2022-11-11T08:22:22;33.00;;;13.67;;
4921;SDS011;16625;53.624;10.106;2022-11-11T08:24:49;29.80;;;12.67;;
4921;SDS011;16625;53.624;10.106;2022-11-11T08:27:17;25.90;;;14.27;;
4921;SDS011;16625;53.624;10.106;2022-11-11T08:29:44;36.53;;;15.20;;
4921;SDS011;16625;53.624;10.106;2022-11-11T08:32:10;36.73;;;12.97;;
4921;SDS011;16625;53.624;10.106;2022-11-11T08:34:37;33.07;;;14.20;;
4921;SDS011;16625;53.624;10.106;2022-11-11T08:37:04;26.40;;;13.37;;
4921;SDS011;16625;53.624;10.106;2022-11-11T08:39:31;25.73;;;13.93;;
4921;SDS011;16625;53.624;10.106;2022-11-11T08:41:58;28.50;;;13.20;;
4921;SDS011;16625;53.624;10.106;2022-11-11T08:44:26;27.50;;;14.87;;
4921;SDS011;16625;53.624;10.106;2022-11-11T08:46:54;33.13;;;16.47;;
4921;SDS011;16625;53.624;10.106;2022-11-11T08:49:22;25.57;;;14.00;;
4921;SDS011;16625;53.624;10.106;2022-11-11T08:51:48;21.60;;;12.50;;
4921;SDS011;16625;53.624;10.106;2022-11-11T08:54:16;25.27;;;13.13;;
4921;SDS011;16625;53.624;10.106;2022-11-11T08:56:43;29.67;;;16.30;;
4921;SDS011;16625;53.624;10.106;2022-11-11T08:59:10;26.23;;;15.37;;
4921;SDS011;16625;53.624;10.106;2022-11-11T09:01:38;30.53;;;13.60;;
4921;SDS011;16625;53.624;10.106;2022-11-11T09:04:05;22.67;;;14.10;;
4921;SDS011;16625;53.624;10.106;2022-11-11T09:06:32;26.27;;;14.57;;
4921;SDS011;16625;53.624;10.106;2022-11-11T09:08:59;22.83;;;14.13;;
4921;SDS011;16625;53.624;10.106;2022-11-11T09:11:26;21.00;;;13.33;;
4921;SDS011;16625;53.624;10.106;2022-11-11T09:14:00;30.57;;;13.80;;
4921;SDS011;16625;53.624;10.106;2022-11-11T09:16:27;22.00;;;13.53;;
4921;SDS011;16625;53.624;10.106;2022-11-11T09:18:55;28.17;;;12.50;;
4921;SDS011;16625;53.624;10.106;2022-11-11T09:21:24;26.20;;;13.63;;
4921;SDS011;16625;53.624;10.106;2022-11-11T09:23:51;27.33;;;15.70;;
4921;SDS011;16625;53.624;10.106;2022-11-11T09:26:18;26.07;;;13.83;;
4921;SDS011;16625;53.624;10.106;2022-11-11T09:28:45;23.90;;;14.20;;
4921;SDS011;16625;53.624;10.106;2022-11-11T09:31:13;28.43;;;14.00;;
4921;SDS011;16625;53.624;10.106;2022-11-11T09:33:40;27.83;;;14.37;;
4921;SDS011;16625;53.624;10.106;2022-11-11T09:36:08;27.00;;;14.13;;
4921;SDS011;16625;53.624;10.106;2022-11-11T09:38:35;31.90;;;14.30;;
4921;SDS011;16625;53.624;10.106;2022-11-11T09:41:14;21.50;;;12.63;;
4921;SDS011;16625;53.624;10.106;2022-11-11T09:43:48;19.30;;;12.53;;
4921;SDS011;16625;53.624;10.106;2022-11-11T09:46:24;29.40;;;15.30;;
4921;SDS011;16625;53.624;10.106;2022-11-11T09:49:10;24.80;;;15.13;;
4921;SDS011;16625;53.624;10.106;2022-11-11T09:52:00;29.03;;;13.63;;
4921;SDS011;16625;53.624;10.106;2022-11-11T09:54:33;29.50;;;15.47;;
4921;SDS011;16625;53.624;10.106;2022-11-11T09:57:07;23.43;;;12.40;;
4921;SDS011;16625;53.624;10.106;2022-11-11T09:59:42;21.20;;;12.90;;
4921;SDS011;16625;53.624;10.106;2022-11-11T10:02:14;28.97;;;13.90;;
4921;SDS011;16625;53.624;10.106;2022-11-11T10:04:49;25.07;;;14.37;;
4921;SDS011;16625;53.624;10.106;2022-11-11T10:07:25;19.90;;;13.13;;
4921;SDS011;16625;53.624;10.106;2022-11-11T10:10:00;24.83;;;12.90;;
4921;SDS011;16625;53.624;10.106;2022-11-11T10:12:34;24.80;;;14.20;;
4921;SDS011;16625;53.624;10.106;2022-11-11T10:15:09;35.63;;;13.10;;
4921;SDS011;16625;53.624;10.106;2022-11-11T10:17:39;32.53;;;14.67;;
4921;SDS011;16625;53.624;10.106;2022-11-11T10:20:13;33.07;;;13.47;;
4921;SDS011;16625;53.624;10.106;2022-11-11T10:22:47;23.53;;;13.70;;
4921;SDS011;16625;53.624;10.106;2022-11-11T10:25:19;29.00;;;16.10;;
4921;SDS011;16625;53.624;10.106;2022-11-11T10:27:50;25.93;;;12.87;;
4921;SDS011;16625;53.624;10.106;2022-11-11T10:30:21;27.47;;;12.83;;
4921;SDS011;16625;53.624;10.106;2022-11-11T10:32:52;22.87;;;13.60;;
4921;SDS011;16625;53.624;10.106;2022-11-11T10:35:23;32.17;;;12.27;;
4921;SDS011;16625;53.624;10.106;2022-11-11T10:37:54;26.07;;;12.93;;
4921;SDS011;16625;53.624;10.106;2022-11-11T10:40:28;26.13;;;14.37;;
4921;SDS011;16625;53.624;10.106;2022-11-11T10:42:59;23.90;;;15.07;;
4921;SDS011;16625;53.624;10.106;2022-11-11T10:45:27;25.13;;;12.90;;
4921;SDS011;16625;53.624;10.106;2022-11-11T10:48:02;21.30;;;12.60;;
4921;SDS011;16625;53.624;10.106;2022-11-11T10:50:38;34.80;;;13.13;;
4921;SDS011;16625;53.624;10.106;2022-11-11T10:53:16;23.13;;;13.10;;
4921;SDS011;16625;53.624;10.106;2022-11-11T10:55:51;29.70;;;13.17;;
4921;SDS011;16625;53.624;10.106;2022-11-11T10:58:33;21.20;;;11.60;;
4921;SDS011;16625;53.624;10.106;2022-11-11T11:01:05;22.30;;;11.87;;
4921;SDS011;16625;53.624;10.106;2022-11-11T11:03:37;20.57;;;13.00;;
4921;SDS011;16625;53.624;10.106;2022-11-11T11:06:10;21.70;;;12.33;;
4921;SDS011;16625;53.624;10.106;2022-11-11T11:08:44;22.33;;;12.07;;
4921;SDS011;16625;53.624;10.106;2022-11-11T11:11:19;27.03;;;13.90;;
4921;SDS011;16625;53.624;10.106;2022-11-11T11:13:57;36.57;;;12.20;;
4921;SDS011;16625;53.624;10.106;2022-11-11T11:16:29;19.57;;;13.10;;
4921;SDS011;16625;53.624;10.106;2022-11-11T11:19:12;20.00;;;12.37;;
4921;SDS011;16625;53.624;10.106;2022-11-11T11:21:46;21.57;;;12.63;;
4921;SDS011;16625;53.624;10.106;2022-11-11T11:24:20;23.73;;;13.43;;
4921;SDS011;16625;53.624;10.106;2022-11-11T11:34:10;20.97;;;12.90;;
4921;SDS011;16625;53.624;10.106;2022-11-11T11:36:37;27.77;;;13.33;;
4921;SDS011;16625;53.624;10.106;2022-11-11T11:39:10;24.07;;;13.97;;
4921;SDS011;16625;53.624;10.106;2022-11-11T11:41:56;22.60;;;11.77;;
4921;SDS011;16625;53.624;10.106;2022-11-11T11:44:24;20.87;;;11.87;;
4921;SDS011;16625;53.624;10.106;2022-11-11T11:46:51;18.30;;;11.53;;
4921;SDS011;16625;53.624;10.106;2022-11-11T11:49:25;17.73;;;12.33;;
4921;SDS011;16625;53.624;10.106;2022-11-11T11:52:08;22.27;;;12.60;;
4921;SDS011;16625;53.624;10.106;2022-11-11T11:54:51;21.97;;;12.57;;
4921;SDS011;16625;53.624;10.106;2022-11-11T11:57:36;25.33;;;12.20;;
4921;SDS011;16625;53.624;10.106;2022-11-11T12:00:13;21.00;;;11.57;;
4921;SDS011;16625;53.624;10.106;2022-11-11T12:02:59;22.60;;;13.67;;
4921;SDS011;16625;53.624;10.106;2022-11-11T12:05:39;24.73;;;12.83;;
4921;SDS011;16625;53.624;10.106;2022-11-11T12:08:12;23.43;;;13.60;;
4921;SDS011;16625;53.624;10.106;2022-11-11T12:10:55;20.67;;;12.60;;
4921;SDS011;16625;53.624;10.106;2022-11-11T12:13:29;16.57;;;11.47;;
4921;SDS011;16625;53.624;10.106;2022-11-11T12:16:09;18.47;;;11.47;;
4921;SDS011;16625;53.624;10.106;2022-11-11T12:18:57;26.30;;;12.80;;
4921;SDS011;16625;53.624;10.106;2022-11-11T12:22:21;25.57;;;11.53;;
4921;SDS011;16625;53.624;10.106;2022-11-11T12:24:58;26.17;;;12.23;;
4921;SDS011;16625;53.624;10.106;2022-11-11T12:27:41;30.60;;;11.77;;
4921;SDS011;16625;53.624;10.106;2022-11-11T12:30:17;22.47;;;12.63;;
4921;SDS011;16625;53.624;10.106;2022-11-11T12:32:59;25.93;;;12.80;;
4921;SDS011;16625;53.624;10.106;2022-11-11T12:35:48;26.90;;;13.43;;
4921;SDS011;16625;53.624;10.106;2022-11-11T12:38:32;22.83;;;12.20;;
4921;SDS011;16625;53.624;10.106;2022-11-11T12:41:18;25.37;;;14.13;;
4921;SDS011;16625;53.624;10.106;2022-11-11T12:43:53;25.00;;;12.97;;
4921;SDS011;16625;53.624;10.106;2022-11-11T12:46:29;46.90;;;14.00;;
4921;SDS011;16625;53.624;10.106;2022-11-11T12:49:06;21.37;;;14.23;;
4921;SDS011;16625;53.624;10.106;2022-11-11T12:51:53;21.67;;;12.37;;
4921;SDS011;16625;53.624;10.106;2022-11-11T12:54:29;21.23;;;13.03;;
4921;SDS011;16625;53.624;10.106;2022-11-11T12:57:56;28.50;;;13.83;;
4921;SDS011;16625;53.624;10.106;2022-11-11T13:00:38;38.23;;;12.97;;
4921;SDS011;16625;53.624;10.106;2022-11-11T13:03:19;20.67;;;12.60;;
4921;SDS011;16625;53.624;10.106;2022-11-11T13:05:59;22.77;;;13.07;;
4921;SDS011;16625;53.624;10.106;2022-11-11T13:08:42;21.67;;;12.17;;
4921;SDS011;16625;53.624;10.106;2022-11-11T13:11:23;24.60;;;11.97;;
4921;SDS011;16625;53.624;10.106;2022-11-11T13:14:01;21.27;;;12.00;;
4921;SDS011;16625;53.624;10.106;2022-11-11T13:16:39;22.43;;;11.00;;
4921;SDS011;16625;53.624;10.106;2022-11-11T13:19:10;20.10;;;10.30;;
4921;SDS011;16625;53.624;10.106;2022-11-11T13:21:54;19.27;;;11.10;;
4921;SDS011;16625;53.624;10.106;2022-11-11T13:24:27;22.20;;;11.00;;
4921;SDS011;16625;53.624;10.106;2022-11-11T13:26:57;19.97;;;12.10;;
4921;SDS011;16625;53.624;10.106;2022-11-11T13:29:45;16.27;;;9.63;;
4921;SDS011;16625;53.624;10.106;2022-11-11T13:32:45;19.10;;;10.53;;
4921;SDS011;16625;53.624;10.106;2022-11-11T13:35:18;23.67;;;12.87;;
4921;SDS011;16625;53.624;10.106;2022-11-11T17:32:06;21.57;;;13.27;;
